sensor_id;sensor_type;location;lat;lon;timestamp;P1;durP1;ratioP1;P2;durP2;ratioP2
35592;SDS011;64447;52.140;5.602;2023-02-26T00:00:02;6.85;;;3.22;;
35592;SDS011;64447;52.140;5.602;2023-02-26T00:02:32;5.82;;;2.83;;
35592;SDS011;64447;52.140;5.602;2023-02-26T00:04:58;8.48;;;3.55;;
35592;SDS011;64447;52.140;5.602;2023-02-26T00:07:24;7.13;;;2.55;;
35592;SDS011;64447;52.140;5.602;2023-02-26T00:09:51;7.22;;;2.85;;
35592;SDS011;64447;52.140;5.602;2023-02-26T00:12:17;5.82;;;3.05;;
35592;SDS011;64447;52.140;5.602;2023-02-26T00:14:43;5.28;;;3.00;;
35592;SDS011;64447;52.140;5.602;2023-02-26T00:17:13;6.95;;;2.45;;
35592;SDS011;64447;52.140;5.602;2023-02-26T00:19:50;7.18;;;3.03;;
35592;SDS011;64447;52.140;5.602;2023-02-26T00:22:16;6.28;;;2.13;;
35592;SDS011;64447;52.140;5.602;2023-02-26T00:28:04;4.50;;;1.67;;
35592;SDS011;64447;52.140;5.602;2023-02-26T00:30:31;4.20;;;1.98;;
35592;SDS011;64447;52.140;5.602;2023-02-26T00:32:57;5.85;;;1.98;;
35592;SDS011;64447;52.140;5.602;2023-02-26T00:35:23;6.18;;;2.25;;
35592;SDS011;64447;52.140;5.602;2023-02-26T00:40:35;4.63;;;1.85;;
35592;SDS011;64447;52.140;5.602;2023-02-26T00:43:08;8.23;;;1.83;;
35592;SDS011;64447;52.140;5.602;2023-02-26T00:48:25;5.82;;;2.05;;
35592;SDS011;64447;52.140;5.602;2023-02-26T00:51:09;5.43;;;1.60;;
35592;SDS011;64447;52.140;5.602;2023-02-26T00:56:29;4.75;;;1.65;;
35592;SDS011;64447;52.140;5.602;2023-02-26T00:58:54;5.40;;;1.88;;
35592;SDS011;64447;52.140;5.602;2023-02-26T01:01:20;2.72;;;1.50;;
35592;SDS011;64447;52.140;5.602;2023-02-26T01:03:45;5.07;;;1.52;;
35592;SDS011;64447;52.140;5.602;2023-02-26T01:06:12;6.22;;;1.50;;
35592;SDS011;64447;52.140;5.602;2023-02-26T01:08:46;8.13;;;1.75;;
35592;SDS011;64447;52.140;5.602;2023-02-26T01:11:24;5.60;;;1.55;;
35592;SDS011;64447;52.140;5.602;2023-02-26T01:13:50;3.40;;;1.80;;
35592;SDS011;64447;52.140;5.602;2023-02-26T01:16:18;5.38;;;1.88;;
35592;SDS011;64447;52.140;5.602;2023-02-26T01:19:01;6.13;;;2.03;;
35592;SDS011;64447;52.140;5.602;2023-02-26T01:21:37;5.15;;;1.60;;
35592;SDS011;64447;52.140;5.602;2023-02-26T01:24:11;4.65;;;1.90;;
35592;SDS011;64447;52.140;5.602;2023-02-26T01:26:39;3.60;;;1.67;;
35592;SDS011;64447;52.140;5.602;2023-02-26T01:29:05;5.45;;;1.67;;
35592;SDS011;64447;52.140;5.602;2023-02-26T01:31:38;5.78;;;1.25;;
35592;SDS011;64447;52.140;5.602;2023-02-26T01:34:15;6.60;;;1.52;;
35592;SDS011;64447;52.140;5.602;2023-02-26T01:36:49;5.50;;;1.63;;
35592;SDS011;64447;52.140;5.602;2023-02-26T01:39:31;2.72;;;1.25;;
35592;SDS011;64447;52.140;5.602;2023-02-26T01:45:00;6.38;;;1.67;;
35592;SDS011;64447;52.140;5.602;2023-02-26T01:50:24;5.88;;;1.40;;
35592;SDS011;64447;52.140;5.602;2023-02-26T01:55:58;2.80;;;1.25;;
35592;SDS011;64447;52.140;5.602;2023-02-26T01:58:28;8.32;;;1.70;;
35592;SDS011;64447;52.140;5.602;2023-02-26T02:00:57;3.00;;;1.27;;
35592;SDS011;64447;52.140;5.602;2023-02-26T02:03:23;4.28;;;1.67;;
35592;SDS011;64447;52.140;5.602;2023-02-26T02:05:54;5.57;;;1.55;;
35592;SDS011;64447;52.140;5.602;2023-02-26T02:11:51;7.75;;;1.60;;
35592;SDS011;64447;52.140;5.602;2023-02-26T02:14:40;4.95;;;1.30;;
35592;SDS011;64447;52.140;5.602;2023-02-26T02:17:33;5.43;;;1.73;;
35592;SDS011;64447;52.140;5.602;2023-02-26T02:23:18;12.80;;;2.13;;
35592;SDS011;64447;52.140;5.602;2023-02-26T02:31:13;5.35;;;1.75;;
35592;SDS011;64447;52.140;5.602;2023-02-26T02:33:47;5.82;;;1.98;;
35592;SDS011;64447;52.140;5.602;2023-02-26T02:39:06;6.13;;;1.60;;
35592;SDS011;64447;52.140;5.602;2023-02-26T02:41:39;2.75;;;1.38;;
35592;SDS011;64447;52.140;5.602;2023-02-26T02:44:10;5.45;;;1.42;;
35592;SDS011;64447;52.140;5.602;2023-02-26T02:46:39;4.18;;;1.75;;
35592;SDS011;64447;52.140;5.602;2023-02-26T02:49:08;8.80;;;1.90;;
35592;SDS011;64447;52.140;5.602;2023-02-26T02:51:44;5.25;;;1.63;;
35592;SDS011;64447;52.140;5.602;2023-02-26T02:54:16;6.05;;;2.00;;
35592;SDS011;64447;52.140;5.602;2023-02-26T02:56:55;4.38;;;1.88;;
35592;SDS011;64447;52.140;5.602;2023-02-26T02:59:35;5.68;;;1.40;;
35592;SDS011;64447;52.140;5.602;2023-02-26T03:02:16;5.85;;;1.50;;
35592;SDS011;64447;52.140;5.602;2023-02-26T03:04:50;5.25;;;1.38;;
35592;SDS011;64447;52.140;5.602;2023-02-26T03:07:16;5.88;;;1.38;;
35592;SDS011;64447;52.140;5.602;2023-02-26T03:09:42;1.98;;;1.30;;
35592;SDS011;64447;52.140;5.602;2023-02-26T03:12:08;9.38;;;1.80;;
35592;SDS011;64447;52.140;5.602;2023-02-26T03:14:34;4.07;;;1.17;;
35592;SDS011;64447;52.140;5.602;2023-02-26T03:25:33;4.03;;;1.08;;
35592;SDS011;64447;52.140;5.602;2023-02-26T03:42:20;3.85;;;1.23;;
35592;SDS011;64447;52.140;5.602;2023-02-26T03:44:58;6.53;;;1.20;;
35592;SDS011;64447;52.140;5.602;2023-02-26T03:47:47;4.72;;;1.25;;
35592;SDS011;64447;52.140;5.602;2023-02-26T03:50:19;2.60;;;0.95;;
35592;SDS011;64447;52.140;5.602;2023-02-26T03:53:05;2.70;;;1.13;;
35592;SDS011;64447;52.140;5.602;2023-02-26T03:59:31;5.85;;;1.33;;
35592;SDS011;64447;52.140;5.602;2023-02-26T04:02:06;4.18;;;1.23;;
35592;SDS011;64447;52.140;5.602;2023-02-26T04:05:13;3.42;;;1.63;;
35592;SDS011;64447;52.140;5.602;2023-02-26T04:07:31;3.13;;;1.45;;
35592;SDS011;64447;52.140;5.602;2023-02-26T04:09:57;5.45;;;1.02;;
35592;SDS011;64447;52.140;5.602;2023-02-26T04:12:23;4.15;;;1.30;;
35592;SDS011;64447;52.140;5.602;2023-02-26T04:14:50;2.25;;;1.00;;
35592;SDS011;64447;52.140;5.602;2023-02-26T04:17:16;4.85;;;1.20;;
35592;SDS011;64447;52.140;5.602;2023-02-26T04:19:42;7.38;;;1.40;;
35592;SDS011;64447;52.140;5.602;2023-02-26T04:22:08;3.17;;;1.40;;
35592;SDS011;64447;52.140;5.602;2023-02-26T04:24:34;5.47;;;1.23;;
35592;SDS011;64447;52.140;5.602;2023-02-26T04:27:00;4.03;;;1.40;;
35592;SDS011;64447;52.140;5.602;2023-02-26T04:29:25;6.35;;;1.30;;
35592;SDS011;64447;52.140;5.602;2023-02-26T04:31:51;3.60;;;1.50;;
35592;SDS011;64447;52.140;5.602;2023-02-26T04:34:17;4.22;;;1.55;;
35592;SDS011;64447;52.140;5.602;2023-02-26T04:36:43;4.03;;;1.08;;
35592;SDS011;64447;52.140;5.602;2023-02-26T04:39:08;5.00;;;1.23;;
35592;SDS011;64447;52.140;5.602;2023-02-26T04:41:34;4.10;;;1.40;;
35592;SDS011;64447;52.140;5.602;2023-02-26T04:44:00;2.65;;;1.10;;
35592;SDS011;64447;52.140;5.602;2023-02-26T04:46:26;5.68;;;1.23;;
35592;SDS011;64447;52.140;5.602;2023-02-26T04:48:52;6.70;;;1.40;;
35592;SDS011;64447;52.140;5.602;2023-02-26T04:51:17;5.05;;;1.10;;
35592;SDS011;64447;52.140;5.602;2023-02-26T04:53:43;3.85;;;1.45;;
35592;SDS011;64447;52.140;5.602;2023-02-26T04:56:09;4.35;;;1.50;;
35592;SDS011;64447;52.140;5.602;2023-02-26T04:58:35;3.35;;;1.17;;
35592;SDS011;64447;52.140;5.602;2023-02-26T05:01:00;3.83;;;1.73;;
35592;SDS011;64447;52.140;5.602;2023-02-26T05:03:26;3.08;;;1.08;;
35592;SDS011;64447;52.140;5.602;2023-02-26T05:05:52;2.17;;;1.00;;
35592;SDS011;64447;52.140;5.602;2023-02-26T05:08:17;4.53;;;1.40;;
35592;SDS011;64447;52.140;5.602;2023-02-26T05:14:05;3.72;;;1.20;;
35592;SDS011;64447;52.140;5.602;2023-02-26T05:16:30;2.53;;;1.10;;
35592;SDS011;64447;52.140;5.602;2023-02-26T05:18:56;4.55;;;1.23;;
35592;SDS011;64447;52.140;5.602;2023-02-26T05:21:21;2.05;;;1.02;;
35592;SDS011;64447;52.140;5.602;2023-02-26T05:23:47;5.88;;;1.90;;
35592;SDS011;64447;52.140;5.602;2023-02-26T05:26:13;4.32;;;1.30;;
35592;SDS011;64447;52.140;5.602;2023-02-26T05:28:38;3.88;;;1.38;;
35592;SDS011;64447;52.140;5.602;2023-02-26T05:31:04;4.47;;;1.65;;
35592;SDS011;64447;52.140;5.602;2023-02-26T05:33:30;2.75;;;1.15;;
35592;SDS011;64447;52.140;5.602;2023-02-26T05:35:56;4.47;;;1.30;;
35592;SDS011;64447;52.140;5.602;2023-02-26T05:38:22;3.03;;;1.30;;
35592;SDS011;64447;52.140;5.602;2023-02-26T05:44:09;3.15;;;1.02;;
35592;SDS011;64447;52.140;5.602;2023-02-26T05:46:35;3.85;;;1.02;;
35592;SDS011;64447;52.140;5.602;2023-02-26T05:49:01;5.03;;;1.10;;
35592;SDS011;64447;52.140;5.602;2023-02-26T05:51:26;3.45;;;1.17;;
35592;SDS011;64447;52.140;5.602;2023-02-26T05:53:53;1.88;;;1.10;;
35592;SDS011;64447;52.140;5.602;2023-02-26T05:56:18;3.92;;;1.33;;
35592;SDS011;64447;52.140;5.602;2023-02-26T05:58:44;3.30;;;1.25;;
35592;SDS011;64447;52.140;5.602;2023-02-26T06:01:10;3.08;;;1.15;;
35592;SDS011;64447;52.140;5.602;2023-02-26T06:03:35;6.47;;;1.55;;
35592;SDS011;64447;52.140;5.602;2023-02-26T06:06:01;6.10;;;1.20;;
35592;SDS011;64447;52.140;5.602;2023-02-26T06:08:26;1.58;;;1.05;;
35592;SDS011;64447;52.140;5.602;2023-02-26T06:14:14;3.45;;;1.10;;
35592;SDS011;64447;52.140;5.602;2023-02-26T06:16:40;2.95;;;1.20;;
35592;SDS011;64447;52.140;5.602;2023-02-26T06:19:05;2.60;;;1.00;;
35592;SDS011;64447;52.140;5.602;2023-02-26T06:21:31;2.85;;;1.20;;
35592;SDS011;64447;52.140;5.602;2023-02-26T06:23:56;4.68;;;1.17;;
35592;SDS011;64447;52.140;5.602;2023-02-26T06:26:22;2.30;;;1.13;;
35592;SDS011;64447;52.140;5.602;2023-02-26T06:28:48;3.70;;;1.33;;
35592;SDS011;64447;52.140;5.602;2023-02-26T06:31:13;2.70;;;1.20;;
35592;SDS011;64447;52.140;5.602;2023-02-26T06:33:39;5.90;;;1.30;;
35592;SDS011;64447;52.140;5.602;2023-02-26T06:36:04;2.78;;;1.10;;
35592;SDS011;64447;52.140;5.602;2023-02-26T06:38:30;4.30;;;1.25;;
35592;SDS011;64447;52.140;5.602;2023-02-26T06:44:17;3.80;;;1.00;;
35592;SDS011;64447;52.140;5.602;2023-02-26T06:46:43;4.63;;;1.73;;
35592;SDS011;64447;52.140;5.602;2023-02-26T06:49:08;3.58;;;1.55;;
35592;SDS011;64447;52.140;5.602;2023-02-26T06:51:34;2.80;;;1.40;;
35592;SDS011;64447;52.140;5.602;2023-02-26T06:54:00;3.15;;;1.10;;
35592;SDS011;64447;52.140;5.602;2023-02-26T06:56:25;2.10;;;0.93;;
35592;SDS011;64447;52.140;5.602;2023-02-26T06:58:51;2.78;;;1.30;;
35592;SDS011;64447;52.140;5.602;2023-02-26T07:01:17;4.53;;;0.90;;
35592;SDS011;64447;52.140;5.602;2023-02-26T07:03:42;5.20;;;1.45;;
35592;SDS011;64447;52.140;5.602;2023-02-26T07:06:08;4.60;;;1.20;;
35592;SDS011;64447;52.140;5.602;2023-02-26T07:08:36;6.68;;;1.48;;
35592;SDS011;64447;52.140;5.602;2023-02-26T07:14:24;4.47;;;1.30;;
35592;SDS011;64447;52.140;5.602;2023-02-26T07:16:50;4.55;;;1.27;;
35592;SDS011;64447;52.140;5.602;2023-02-26T07:19:15;3.22;;;1.00;;
35592;SDS011;64447;52.140;5.602;2023-02-26T07:21:41;1.73;;;1.17;;
35592;SDS011;64447;52.140;5.602;2023-02-26T07:24:07;3.95;;;1.23;;
35592;SDS011;64447;52.140;5.602;2023-02-26T07:26:32;2.45;;;1.20;;
35592;SDS011;64447;52.140;5.602;2023-02-26T07:28:58;4.68;;;1.40;;
35592;SDS011;64447;52.140;5.602;2023-02-26T07:31:23;6.47;;;1.20;;
35592;SDS011;64447;52.140;5.602;2023-02-26T07:33:49;4.50;;;1.10;;
35592;SDS011;64447;52.140;5.602;2023-02-26T07:36:15;5.53;;;1.60;;
35592;SDS011;64447;52.140;5.602;2023-02-26T07:38:41;4.88;;;1.17;;
35592;SDS011;64447;52.140;5.602;2023-02-26T07:44:28;8.80;;;1.88;;
35592;SDS011;64447;52.140;5.602;2023-02-26T07:46:54;8.98;;;1.30;;
35592;SDS011;64447;52.140;5.602;2023-02-26T07:49:19;4.78;;;1.63;;
35592;SDS011;64447;52.140;5.602;2023-02-26T07:51:45;3.60;;;1.33;;
35592;SDS011;64447;52.140;5.602;2023-02-26T07:54:12;4.55;;;1.35;;
35592;SDS011;64447;52.140;5.602;2023-02-26T07:56:38;5.85;;;2.35;;
35592;SDS011;64447;52.140;5.602;2023-02-26T07:59:05;4.72;;;1.48;;
35592;SDS011;64447;52.140;5.602;2023-02-26T08:01:31;1.73;;;1.20;;
35592;SDS011;64447;52.140;5.602;2023-02-26T08:03:56;3.03;;;1.38;;
35592;SDS011;64447;52.140;5.602;2023-02-26T08:06:22;4.05;;;1.42;;
35592;SDS011;64447;52.140;5.602;2023-02-26T08:08:47;4.60;;;1.30;;
35592;SDS011;64447;52.140;5.602;2023-02-26T08:14:35;5.05;;;1.65;;
35592;SDS011;64447;52.140;5.602;2023-02-26T08:17:01;8.98;;;1.65;;
35592;SDS011;64447;52.140;5.602;2023-02-26T08:19:26;4.07;;;1.42;;
35592;SDS011;64447;52.140;5.602;2023-02-26T08:21:52;4.15;;;1.30;;
35592;SDS011;64447;52.140;5.602;2023-02-26T08:24:19;5.40;;;1.60;;
35592;SDS011;64447;52.140;5.602;2023-02-26T08:30:07;3.92;;;1.10;;
35592;SDS011;64447;52.140;5.602;2023-02-26T08:32:34;2.28;;;1.30;;
35592;SDS011;64447;52.140;5.602;2023-02-26T08:34:59;3.78;;;1.17;;
35592;SDS011;64447;52.140;5.602;2023-02-26T08:37:25;2.05;;;1.30;;
35592;SDS011;64447;52.140;5.602;2023-02-26T08:39:52;6.78;;;1.70;;
35592;SDS011;64447;52.140;5.602;2023-02-26T08:42:18;3.47;;;1.20;;
35592;SDS011;64447;52.140;5.602;2023-02-26T08:44:44;3.63;;;1.35;;
35592;SDS011;64447;52.140;5.602;2023-02-26T08:47:11;3.22;;;1.00;;
35592;SDS011;64447;52.140;5.602;2023-02-26T08:49:37;2.78;;;1.35;;
35592;SDS011;64447;52.140;5.602;2023-02-26T08:52:02;4.88;;;1.00;;
35592;SDS011;64447;52.140;5.602;2023-02-26T08:54:28;4.97;;;1.30;;
35592;SDS011;64447;52.140;5.602;2023-02-26T09:00:42;4.65;;;1.20;;
35592;SDS011;64447;52.140;5.602;2023-02-26T09:03:07;5.00;;;1.25;;
35592;SDS011;64447;52.140;5.602;2023-02-26T09:05:33;2.40;;;1.00;;
35592;SDS011;64447;52.140;5.602;2023-02-26T09:07:59;4.15;;;1.30;;
35592;SDS011;64447;52.140;5.602;2023-02-26T09:10:24;5.68;;;1.27;;
35592;SDS011;64447;52.140;5.602;2023-02-26T09:12:50;3.03;;;1.20;;
35592;SDS011;64447;52.140;5.602;2023-02-26T09:15:16;3.13;;;1.45;;
35592;SDS011;64447;52.140;5.602;2023-02-26T09:17:42;3.90;;;1.00;;
35592;SDS011;64447;52.140;5.602;2023-02-26T09:20:08;3.13;;;1.05;;
35592;SDS011;64447;52.140;5.602;2023-02-26T09:22:35;4.68;;;0.98;;
35592;SDS011;64447;52.140;5.602;2023-02-26T09:25:00;5.13;;;1.60;;
35592;SDS011;64447;52.140;5.602;2023-02-26T09:27:26;3.17;;;0.90;;
35592;SDS011;64447;52.140;5.602;2023-02-26T09:29:52;4.75;;;1.33;;
35592;SDS011;64447;52.140;5.602;2023-02-26T09:32:18;4.25;;;1.27;;
35592;SDS011;64447;52.140;5.602;2023-02-26T09:34:44;4.70;;;1.08;;
35592;SDS011;64447;52.140;5.602;2023-02-26T09:37:10;3.05;;;0.98;;
35592;SDS011;64447;52.140;5.602;2023-02-26T09:39:35;1.88;;;0.77;;
35592;SDS011;64447;52.140;5.602;2023-02-26T09:45:29;1.63;;;1.10;;
35592;SDS011;64447;52.140;5.602;2023-02-26T09:47:58;2.55;;;1.10;;
35592;SDS011;64447;52.140;5.602;2023-02-26T09:50:37;2.45;;;0.85;;
35592;SDS011;64447;52.140;5.602;2023-02-26T09:53:17;2.05;;;1.00;;
35592;SDS011;64447;52.140;5.602;2023-02-26T09:56:03;1.42;;;0.85;;
35592;SDS011;64447;52.140;5.602;2023-02-26T09:58:33;4.45;;;0.77;;
35592;SDS011;64447;52.140;5.602;2023-02-26T10:12:06;0.77;;;0.70;;
35592;SDS011;64447;52.140;5.602;2023-02-26T10:19:50;2.47;;;1.00;;
35592;SDS011;64447;52.140;5.602;2023-02-26T10:22:54;3.67;;;0.80;;
35592;SDS011;64447;52.140;5.602;2023-02-26T10:34:22;1.95;;;1.05;;
35592;SDS011;64447;52.140;5.602;2023-02-26T10:37:02;3.05;;;1.50;;
35592;SDS011;64447;52.140;5.602;2023-02-26T10:48:21;1.27;;;0.80;;
35592;SDS011;64447;52.140;5.602;2023-02-26T10:51:12;2.45;;;0.90;;
35592;SDS011;64447;52.140;5.602;2023-02-26T10:53:46;6.85;;;1.58;;
35592;SDS011;64447;52.140;5.602;2023-02-26T10:56:19;3.60;;;1.00;;
35592;SDS011;64447;52.140;5.602;2023-02-26T10:58:48;1.67;;;1.00;;
35592;SDS011;64447;52.140;5.602;2023-02-26T11:01:16;2.08;;;0.98;;
35592;SDS011;64447;52.140;5.602;2023-02-26T11:03:50;5.88;;;1.40;;
35592;SDS011;64447;52.140;5.602;2023-02-26T11:06:22;2.80;;;0.70;;
35592;SDS011;64447;52.140;5.602;2023-02-26T11:08:54;3.30;;;0.80;;
35592;SDS011;64447;52.140;5.602;2023-02-26T11:11:39;3.65;;;0.90;;
35592;SDS011;64447;52.140;5.602;2023-02-26T11:14:07;4.05;;;0.70;;
35592;SDS011;64447;52.140;5.602;2023-02-26T11:16:34;2.08;;;0.77;;
35592;SDS011;64447;52.140;5.602;2023-02-26T11:19:05;2.92;;;0.90;;
35592;SDS011;64447;52.140;5.602;2023-02-26T11:21:37;2.05;;;0.90;;
35592;SDS011;64447;52.140;5.602;2023-02-26T11:24:09;1.67;;;0.90;;
35592;SDS011;64447;52.140;5.602;2023-02-26T11:26:45;3.75;;;1.20;;
35592;SDS011;64447;52.140;5.602;2023-02-26T11:29:15;1.17;;;0.60;;
35592;SDS011;64447;52.140;5.602;2023-02-26T11:31:46;2.90;;;1.00;;
35592;SDS011;64447;52.140;5.602;2023-02-26T11:34:20;2.38;;;1.00;;
35592;SDS011;64447;52.140;5.602;2023-02-26T11:36:48;1.98;;;0.90;;
35592;SDS011;64447;52.140;5.602;2023-02-26T11:39:22;3.10;;;1.05;;
35592;SDS011;64447;52.140;5.602;2023-02-26T11:41:50;1.48;;;1.00;;
35592;SDS011;64447;52.140;5.602;2023-02-26T11:44:21;2.20;;;0.85;;
35592;SDS011;64447;52.140;5.602;2023-02-26T11:46:57;2.13;;;0.95;;
35592;SDS011;64447;52.140;5.602;2023-02-26T11:49:27;1.50;;;0.65;;
35592;SDS011;64447;52.140;5.602;2023-02-26T11:54:43;1.73;;;0.73;;
35592;SDS011;64447;52.140;5.602;2023-02-26T11:57:18;0.60;;;0.60;;
35592;SDS011;64447;52.140;5.602;2023-02-26T11:59:49;2.67;;;0.80;;
35592;SDS011;64447;52.140;5.602;2023-02-26T12:02:17;2.72;;;1.50;;
35592;SDS011;64447;52.140;5.602;2023-02-26T12:04:45;4.18;;;1.60;;
35592;SDS011;64447;52.140;5.602;2023-02-26T12:07:14;1.00;;;0.70;;
35592;SDS011;64447;52.140;5.602;2023-02-26T12:09:41;4.60;;;1.20;;
35592;SDS011;64447;52.140;5.602;2023-02-26T12:20:57;0.82;;;0.70;;
35592;SDS011;64447;52.140;5.602;2023-02-26T12:23:33;1.08;;;0.82;;
35592;SDS011;64447;52.140;5.602;2023-02-26T12:30:02;3.40;;;0.70;;
35592;SDS011;64447;52.140;5.602;2023-02-26T12:32:54;1.00;;;0.63;;
35592;SDS011;64447;52.140;5.602;2023-02-26T12:45:03;4.32;;;1.35;;
35592;SDS011;64447;52.140;5.602;2023-02-26T12:50:52;1.48;;;0.73;;
35592;SDS011;64447;52.140;5.602;2023-02-26T12:53:44;2.35;;;1.00;;
35592;SDS011;64447;52.140;5.602;2023-02-26T13:17:20;1.35;;;0.60;;
35592;SDS011;64447;52.140;5.602;2023-02-26T13:20:10;1.40;;;0.68;;
35592;SDS011;64447;52.140;5.602;2023-02-26T13:22:50;2.60;;;0.93;;
35592;SDS011;64447;52.140;5.602;2023-02-26T13:28:57;1.63;;;0.75;;
35592;SDS011;64447;52.140;5.602;2023-02-26T13:34:54;1.52;;;0.50;;
35592;SDS011;64447;52.140;5.602;2023-02-26T13:37:27;0.77;;;0.60;;
35592;SDS011;64447;52.140;5.602;2023-02-26T13:42:46;1.98;;;0.70;;
35592;SDS011;64447;52.140;5.602;2023-02-26T13:48:03;0.82;;;0.70;;
35592;SDS011;64447;52.140;5.602;2023-02-26T13:59:31;2.67;;;0.90;;
35592;SDS011;64447;52.140;5.602;2023-02-26T14:02:00;0.90;;;0.60;;
35592;SDS011;64447;52.140;5.602;2023-02-26T14:04:29;1.88;;;0.93;;
35592;SDS011;64447;52.140;5.602;2023-02-26T14:07:04;2.65;;;0.80;;
35592;SDS011;64447;52.140;5.602;2023-02-26T14:09:53;1.40;;;0.57;;
35592;SDS011;64447;52.140;5.602;2023-02-26T14:19:04;1.90;;;0.90;;
35592;SDS011;64447;52.140;5.602;2023-02-26T14:24:18;1.45;;;0.82;;
35592;SDS011;64447;52.140;5.602;2023-02-26T14:37:15;1.63;;;0.70;;
35592;SDS011;64447;52.140;5.602;2023-02-26T14:45:35;2.47;;;0.80;;
35592;SDS011;64447;52.140;5.602;2023-02-26T14:48:05;2.05;;;0.70;;
35592;SDS011;64447;52.140;5.602;2023-02-26T14:56:57;1.20;;;0.60;;
35592;SDS011;64447;52.140;5.602;2023-02-26T15:00:01;1.58;;;0.60;;
35592;SDS011;64447;52.140;5.602;2023-02-26T15:11:05;1.92;;;0.80;;
35592;SDS011;64447;52.140;5.602;2023-02-26T15:17:11;2.70;;;1.00;;
35592;SDS011;64447;52.140;5.602;2023-02-26T15:19:49;0.82;;;0.60;;
35592;SDS011;64447;52.140;5.602;2023-02-26T15:22:39;3.80;;;0.75;;
35592;SDS011;64447;52.140;5.602;2023-02-26T15:25:22;1.88;;;0.65;;
35592;SDS011;64447;52.140;5.602;2023-02-26T15:27:49;2.83;;;0.70;;
35592;SDS011;64447;52.140;5.602;2023-02-26T15:30:15;1.02;;;0.60;;
35592;SDS011;64447;52.140;5.602;2023-02-26T15:32:41;1.85;;;0.82;;
35592;SDS011;64447;52.140;5.602;2023-02-26T15:37:39;2.75;;;0.80;;
35592;SDS011;64447;52.140;5.602;2023-02-26T15:40:06;2.47;;;1.00;;
35592;SDS011;64447;52.140;5.602;2023-02-26T15:42:38;2.33;;;0.73;;
35592;SDS011;64447;52.140;5.602;2023-02-26T15:45:26;1.90;;;0.68;;
35592;SDS011;64447;52.140;5.602;2023-02-26T15:47:57;1.65;;;0.80;;
35592;SDS011;64447;52.140;5.602;2023-02-26T15:50:30;2.30;;;0.90;;
35592;SDS011;64447;52.140;5.602;2023-02-26T15:53:00;7.18;;;0.88;;
35592;SDS011;64447;52.140;5.602;2023-02-26T15:55:30;2.97;;;0.80;;
35592;SDS011;64447;52.140;5.602;2023-02-26T15:57:59;3.08;;;0.73;;
35592;SDS011;64447;52.140;5.602;2023-02-26T16:00:25;1.52;;;0.90;;
35592;SDS011;64447;52.140;5.602;2023-02-26T16:02:52;1.92;;;0.85;;
35592;SDS011;64447;52.140;5.602;2023-02-26T16:05:21;2.53;;;0.98;;
35592;SDS011;64447;52.140;5.602;2023-02-26T16:07:47;3.00;;;0.82;;
35592;SDS011;64447;52.140;5.602;2023-02-26T16:10:15;3.67;;;0.95;;
35592;SDS011;64447;52.140;5.602;2023-02-26T16:12:51;2.72;;;1.10;;
35592;SDS011;64447;52.140;5.602;2023-02-26T16:15:21;2.63;;;0.93;;
35592;SDS011;64447;52.140;5.602;2023-02-26T16:17:53;2.70;;;0.60;;
35592;SDS011;64447;52.140;5.602;2023-02-26T16:20:21;3.22;;;0.82;;
35592;SDS011;64447;52.140;5.602;2023-02-26T16:22:53;2.55;;;0.80;;
35592;SDS011;64447;52.140;5.602;2023-02-26T16:25:24;4.43;;;0.88;;
35592;SDS011;64447;52.140;5.602;2023-02-26T16:27:57;1.60;;;0.80;;
35592;SDS011;64447;52.140;5.602;2023-02-26T16:30:45;2.67;;;0.93;;
35592;SDS011;64447;52.140;5.602;2023-02-26T16:33:14;2.33;;;0.80;;
35592;SDS011;64447;52.140;5.602;2023-02-26T16:35:43;3.72;;;0.90;;
35592;SDS011;64447;52.140;5.602;2023-02-26T16:41:13;4.00;;;0.80;;
35592;SDS011;64447;52.140;5.602;2023-02-26T16:46:09;4.47;;;0.90;;
35592;SDS011;64447;52.140;5.602;2023-02-26T16:51:31;2.75;;;1.00;;
35592;SDS011;64447;52.140;5.602;2023-02-26T16:54:02;1.38;;;1.00;;
35592;SDS011;64447;52.140;5.602;2023-02-26T16:56:38;3.63;;;1.10;;
35592;SDS011;64447;52.140;5.602;2023-02-26T17:01:33;3.83;;;1.65;;
35592;SDS011;64447;52.140;5.602;2023-02-26T17:04:24;4.65;;;1.10;;
35592;SDS011;64447;52.140;5.602;2023-02-26T17:06:53;4.75;;;0.90;;
35592;SDS011;64447;52.140;5.602;2023-02-26T17:12:03;4.85;;;1.00;;
35592;SDS011;64447;52.140;5.602;2023-02-26T17:14:31;5.97;;;0.98;;
35592;SDS011;64447;52.140;5.602;2023-02-26T17:17:20;5.55;;;1.02;;
35592;SDS011;64447;52.140;5.602;2023-02-26T17:19:46;9.93;;;2.10;;
35592;SDS011;64447;52.140;5.602;2023-02-26T17:22:12;3.33;;;1.35;;
35592;SDS011;64447;52.140;5.602;2023-02-26T17:24:41;3.88;;;1.55;;
35592;SDS011;64447;52.140;5.602;2023-02-26T17:27:13;6.18;;;3.70;;
35592;SDS011;64447;52.140;5.602;2023-02-26T17:29:44;16.52;;;8.85;;
35592;SDS011;64447;52.140;5.602;2023-02-26T17:32:20;17.80;;;10.80;;
35592;SDS011;64447;52.140;5.602;2023-02-26T17:34:48;5.05;;;3.05;;
35592;SDS011;64447;52.140;5.602;2023-02-26T17:37:14;2.17;;;1.45;;
35592;SDS011;64447;52.140;5.602;2023-02-26T17:39:40;5.35;;;2.35;;
35592;SDS011;64447;52.140;5.602;2023-02-26T17:42:25;5.07;;;1.90;;
35592;SDS011;64447;52.140;5.602;2023-02-26T17:44:51;4.72;;;1.45;;
35592;SDS011;64447;52.140;5.602;2023-02-26T17:47:20;4.40;;;1.30;;
35592;SDS011;64447;52.140;5.602;2023-02-26T17:49:47;4.80;;;1.75;;
35592;SDS011;64447;52.140;5.602;2023-02-26T17:52:13;5.22;;;1.40;;
35592;SDS011;64447;52.140;5.602;2023-02-26T17:54:39;3.72;;;1.60;;
35592;SDS011;64447;52.140;5.602;2023-02-26T17:57:06;3.53;;;1.20;;
35592;SDS011;64447;52.140;5.602;2023-02-26T17:59:36;5.65;;;1.60;;
35592;SDS011;64447;52.140;5.602;2023-02-26T18:02:07;4.85;;;1.30;;
35592;SDS011;64447;52.140;5.602;2023-02-26T18:04:40;3.55;;;1.38;;
35592;SDS011;64447;52.140;5.602;2023-02-26T18:07:05;5.07;;;1.23;;
35592;SDS011;64447;52.140;5.602;2023-02-26T18:09:31;7.55;;;2.28;;
35592;SDS011;64447;52.140;5.602;2023-02-26T18:11:57;5.15;;;1.95;;
35592;SDS011;64447;52.140;5.602;2023-02-26T18:14:22;3.63;;;1.17;;
35592;SDS011;64447;52.140;5.602;2023-02-26T18:16:48;5.22;;;1.85;;
35592;SDS011;64447;52.140;5.602;2023-02-26T18:19:14;7.05;;;1.20;;
35592;SDS011;64447;52.140;5.602;2023-02-26T18:21:39;5.95;;;1.60;;
35592;SDS011;64447;52.140;5.602;2023-02-26T18:24:05;4.90;;;1.58;;
35592;SDS011;64447;52.140;5.602;2023-02-26T18:26:31;5.68;;;1.67;;
35592;SDS011;64447;52.140;5.602;2023-02-26T18:28:57;4.88;;;1.88;;
35592;SDS011;64447;52.140;5.602;2023-02-26T18:31:23;6.18;;;1.60;;
35592;SDS011;64447;52.140;5.602;2023-02-26T18:33:56;3.72;;;1.80;;
35592;SDS011;64447;52.140;5.602;2023-02-26T18:36:23;4.93;;;2.05;;
35592;SDS011;64447;52.140;5.602;2023-02-26T18:38:58;8.98;;;1.88;;
35592;SDS011;64447;52.140;5.602;2023-02-26T18:41:28;9.00;;;2.08;;
35592;SDS011;64447;52.140;5.602;2023-02-26T18:43:54;4.13;;;1.85;;
35592;SDS011;64447;52.140;5.602;2023-02-26T18:46:20;6.43;;;1.83;;
35592;SDS011;64447;52.140;5.602;2023-02-26T18:48:46;5.85;;;2.35;;
35592;SDS011;64447;52.140;5.602;2023-02-26T18:51:12;7.78;;;2.60;;
35592;SDS011;64447;52.140;5.602;2023-02-26T18:53:38;7.05;;;2.05;;
35592;SDS011;64447;52.140;5.602;2023-02-26T18:56:04;6.07;;;1.95;;
35592;SDS011;64447;52.140;5.602;2023-02-26T18:58:30;3.78;;;1.70;;
35592;SDS011;64447;52.140;5.602;2023-02-26T19:00:55;7.00;;;2.13;;
35592;SDS011;64447;52.140;5.602;2023-02-26T19:03:25;6.35;;;2.20;;
35592;SDS011;64447;52.140;5.602;2023-02-26T19:05:58;3.55;;;1.73;;
35592;SDS011;64447;52.140;5.602;2023-02-26T19:08:28;6.05;;;1.83;;
35592;SDS011;64447;52.140;5.602;2023-02-26T19:10:55;6.38;;;2.10;;
35592;SDS011;64447;52.140;5.602;2023-02-26T19:13:22;4.93;;;1.52;;
35592;SDS011;64447;52.140;5.602;2023-02-26T19:15:47;5.25;;;1.67;;
35592;SDS011;64447;52.140;5.602;2023-02-26T19:18:14;4.00;;;1.50;;
35592;SDS011;64447;52.140;5.602;2023-02-26T19:20:41;4.55;;;1.55;;
35592;SDS011;64447;52.140;5.602;2023-02-26T19:23:07;6.30;;;1.70;;